Time;durP1;ratioP1;P1;durP2;ratioP2;P2;SDS_P1;SDS_P2;PMS_P1;PMS_P2;Temp;Humidity;BMP_temperature;BMP_pressure;BME280_temperature;BME280_humidity;BME280_pressure;Samples;Min_cycle;Max_cycle;Signal;HPM_P1;HPM_P2
2022/05/25 00:01:36;;;;;;;2.90;2.70;;;11.60;99.90;;;;;;5071555;28;20089;-46
2022/05/25 00:04:04;;;;;;;6.87;3.27;;;11.50;99.90;;;;;;5071942;28;20445;-46
2022/05/25 00:06:30;;;;;;;3.70;3.40;;;11.50;99.90;;;;;;5071703;28;20358;-46
2022/05/25 00:08:56;;;;;;;4.25;3.88;;;11.50;99.90;;;;;;5071776;28;20124;-46
2022/05/25 00:11:22;;;;;;;4.18;3.88;;;11.40;99.90;;;;;;5071084;28;20047;-47
2022/05/25 00:13:47;;;;;;;3.72;3.08;;;11.40;99.90;;;;;;5070464;28;20507;-46
2022/05/25 00:16:13;;;;;;;4.87;4.47;;;11.40;99.90;;;;;;5070519;28;20111;-46
2022/05/25 00:19:58;;;;;;;4.30;4.00;;;11.40;99.90;;;;;;5071755;28;20383;-46
2022/05/25 00:21:24;;;;;;;4.15;3.85;;;11.40;99.90;;;;;;5070892;28;20120;-46
2022/05/25 00:23:50;;;;;;;3.78;3.28;;;11.40;99.90;;;;;;5071032;28;20111;-46
2022/05/25 00:26:15;;;;;;;3.53;3.23;;;11.40;99.90;;;;;;5070567;28;20028;-47
2022/05/25 00:28:41;;;;;;;4.77;4.37;;;11.40;99.90;;;;;;5071230;28;20296;-47
2022/05/25 00:31:08;;;;;;;3.90;3.57;;;11.30;99.90;;;;;;5070677;28;20090;-46
2022/05/25 00:33:34;;;;;;;5.90;5.05;;;11.30;99.90;;;;;;5068301;28;20040;-47
2022/05/25 00:36:00;;;;;;;5.32;3.97;;;11.30;99.90;;;;;;5070661;28;20472;-47
2022/05/25 00:38:25;;;;;;;6.72;4.50;;;11.30;99.90;;;;;;5071108;28;20040;-46
2022/05/25 00:40:51;;;;;;;5.50;5.03;;;11.20;99.90;;;;;;5071568;28;20040;-47
2022/05/25 00:43:16;;;;;;;5.25;4.90;;;11.20;99.90;;;;;;5069638;28;20044;-47
2022/05/25 00:45:46;;;;;;;5.28;4.88;;;11.20;99.90;;;;;;5070280;28;20413;-47
2022/05/25 00:48:21;;;;;;;7.35;4.75;;;11.10;99.90;;;;;;5071052;28;20062;-47
2022/05/25 00:53:33;;;;;;;6.38;5.10;;;11.10;99.90;;;;;;5070244;28;20044;-49
2022/05/25 00:55:59;;;;;;;6.35;5.75;;;11.10;99.90;;;;;;5069560;28;20044;-46
2022/05/25 00:58:25;;;;;;;11.50;5.88;;;11.10;99.90;;;;;;5070573;28;20040;-46
2022/05/25 01:00:50;;;;;;;5.55;5.00;;;11.10;99.90;;;;;;5069370;28;20044;-47
2022/05/25 01:03:16;;;;;;;5.07;4.67;;;11.10;99.90;;;;;;5069496;28;20051;-46
2022/05/25 01:05:49;;;;;;;6.23;5.63;;;11.00;99.90;;;;;;5069943;28;20048;-46
2022/05/25 01:08:32;;;;;;;8.73;5.38;;;11.00;99.90;;;;;;5069771;28;20040;-46
2022/05/25 01:11:26;;;;;;;5.88;5.47;;;10.90;99.90;;;;;;5070705;28;20308;-46
2022/05/25 01:14:03;;;;;;;10.95;5.57;;;10.90;99.90;;;;;;5069679;28;20506;-46
2022/05/25 01:16:48;;;;;;;5.65;5.15;;;10.80;99.90;;;;;;5069325;28;20037;-46
2022/05/25 01:19:32;;;;;;;6.13;5.72;;;10.80;99.90;;;;;;5050488;28;20383;-46
2022/05/25 01:22:28;;;;;;;6.63;6.00;;;10.80;99.90;;;;;;5056436;28;20037;-46
2022/05/25 01:25:26;;;;;;;5.68;4.95;;;10.80;99.90;;;;;;5069305;28;20066;-46
2022/05/25 01:27:53;;;;;;;7.53;5.97;;;10.80;99.90;;;;;;5069115;28;20040;-46
2022/05/25 01:30:35;;;;;;;9.32;6.10;;;10.70;99.90;;;;;;5070486;28;20106;-47
2022/05/25 01:33:19;;;;;;;7.22;6.70;;;10.70;99.90;;;;;;5068823;28;20051;-46
2022/05/25 01:35:56;;;;;;;6.85;6.25;;;10.80;99.90;;;;;;5069228;28;20503;-46
2022/05/25 01:38:43;;;;;;;8.10;6.50;;;10.80;99.90;;;;;;5069937;28;20052;-46
2022/05/25 01:41:30;;;;;;;7.50;6.82;;;10.70;99.90;;;;;;5069756;28;20072;-46
2022/05/25 01:44:00;;;;;;;8.07;7.20;;;10.70;99.90;;;;;;5049992;28;20060;-47
2022/05/25 01:46:36;;;;;;;9.57;6.65;;;10.70;99.90;;;;;;5057829;28;20081;-46
2022/05/25 01:49:06;;;;;;;12.23;6.80;;;10.70;99.90;;;;;;5070473;28;20051;-46
2022/05/25 01:51:43;;;;;;;7.95;7.15;;;10.70;99.90;;;;;;5069392;28;20040;-46
2022/05/25 01:54:11;;;;;;;;;;;10.70;99.90;;;;;;5069891;28;20051;-46
2022/05/25 01:56:39;;;;;;;;;;;10.70;99.90;;;;;;5069512;28;20011;-46
2022/05/25 01:59:07;;;;;;;8.88;7.95;;;10.70;99.90;;;;;;5070192;28;20006;-46
2022/05/25 02:01:33;;;;;;;9.57;6.68;;;10.70;99.90;;;;;;5069774;28;20393;-46
2022/05/25 02:06:52;;;;;;;13.38;7.38;;;10.60;99.90;;;;;;5064599;28;20037;-46
2022/05/25 02:09:45;;;;;;;6.93;6.35;;;10.60;99.90;;;;;;5069577;28;20113;-46
2022/05/25 02:12:30;;;;;;;7.38;6.68;;;10.60;99.90;;;;;;5060125;28;20510;-47
2022/05/25 02:15:01;;;;;;;8.35;7.15;;;10.60;99.90;;;;;;5059268;28;20252;-46
2022/05/25 02:17:47;;;;;;;8.07;7.38;;;10.60;99.90;;;;;;5060256;28;20075;-46
2022/05/25 02:20:33;;;;;;;8.48;6.80;;;10.60;99.90;;;;;;5017992;28;20144;-45
2022/05/25 02:23:30;;;;;;;7.47;6.80;;;10.60;99.90;;;;;;5067603;28;20076;-47
2022/05/25 02:26:06;;;;;;;7.57;6.93;;;10.50;99.90;;;;;;5067260;28;20055;-46
2022/05/25 02:28:39;;;;;;;8.63;7.82;;;10.50;99.90;;;;;;5069601;28;20055;-46
2022/05/25 02:31:08;;;;;;;9.02;8.23;;;10.50;99.90;;;;;;5070231;28;20043;-46
2022/05/25 02:33:39;;;;;;;9.52;8.52;;;10.40;99.90;;;;;;5070748;28;20115;-46
2022/05/25 02:36:08;;;;;;;10.13;8.55;;;10.40;99.90;;;;;;5072684;28;20425;-46
2022/05/25 02:38:37;;;;;;;10.43;8.35;;;10.30;99.90;;;;;;5073384;28;20040;-46
2022/05/25 02:41:11;;;;;;;10.23;8.95;;;10.30;99.90;;;;;;5073428;28;20044;-48
2022/05/25 02:43:38;;;;;;;10.23;9.23;;;10.30;99.90;;;;;;5072374;28;20479;-46
2022/05/25 02:46:06;;;;;;;11.63;10.55;;;10.20;99.90;;;;;;5072464;28;20052;-46
2022/05/25 02:48:33;;;;;;;11.38;9.18;;;10.20;99.90;;;;;;5073157;28;20040;-45
2022/05/25 02:50:58;;;;;;;13.82;11.40;;;10.20;99.90;;;;;;5073576;28;20116;-46
2022/05/25 02:53:24;;;;;;;12.52;10.43;;;10.20;99.90;;;;;;5072198;28;20112;-47
2022/05/25 02:55:50;;;;;;;11.27;10.00;;;10.10;99.90;;;;;;5072573;28;20033;-46
2022/05/25 02:58:16;;;;;;;12.27;11.13;;;10.10;99.90;;;;;;5072685;28;20316;-46
2022/05/25 03:00:41;;;;;;;12.38;11.07;;;10.10;99.90;;;;;;5073042;28;20086;-47
2022/05/25 03:03:07;;;;;;;13.65;11.82;;;10.10;99.90;;;;;;5072084;28;20044;-46
2022/05/25 03:05:33;;;;;;;14.10;12.70;;;10.00;99.90;;;;;;5072248;28;20037;-45
2022/05/25 03:07:58;;;;;;;13.63;12.23;;;10.00;99.90;;;;;;5072588;28;20285;-47
2022/05/25 03:10:24;;;;;;;14.17;12.43;;;10.00;99.90;;;;;;5072883;28;20032;-46
2022/05/25 03:12:49;;;;;;;14.20;11.47;;;9.90;99.90;;;;;;5071971;28;20120;-46
2022/05/25 03:15:20;;;;;;;20.13;13.40;;;9.90;99.90;;;;;;5071626;28;20124;-46
2022/05/25 03:17:46;;;;;;;17.85;15.45;;;9.90;99.90;;;;;;5069859;28;20374;-46
2022/05/25 03:20:12;;;;;;;18.48;15.88;;;9.90;99.90;;;;;;5072454;28;20405;-45
2022/05/25 03:22:39;;;;;;;15.90;14.30;;;9.90;99.90;;;;;;5072196;28;20047;-46
2022/05/25 03:25:05;;;;;;;16.85;15.13;;;9.90;99.90;;;;;;5071552;28;20037;-46
2022/05/25 03:27:31;;;;;;;21.05;15.80;;;9.80;99.90;;;;;;5072600;28;20090;-46
2022/05/25 03:29:57;;;;;;;22.23;16.98;;;9.90;99.90;;;;;;5070615;28;20040;-46
2022/05/25 03:32:22;;;;;;;21.07;17.90;;;9.80;99.90;;;;;;5071625;28;20036;-47
2022/05/25 03:34:49;;;;;;;17.13;15.17;;;9.80;99.90;;;;;;5071512;28;20041;-45
2022/05/25 03:37:14;;;;;;;;;;;9.80;99.90;;;;;;5072883;28;20175;-45
2022/05/25 03:39:40;;;;;;;21.45;17.38;;;9.80;99.90;;;;;;5072226;28;20003;-46
2022/05/25 03:42:07;;;;;;;21.13;17.53;;;9.80;99.90;;;;;;5070947;28;20129;-46
2022/05/25 03:44:34;;;;;;;19.77;17.67;;;9.80;99.90;;;;;;5070464;28;20071;-46
2022/05/25 03:47:00;;;;;;;24.08;20.20;;;9.80;99.90;;;;;;5071850;28;20225;-45
2022/05/25 03:49:26;;;;;;;27.53;18.73;;;9.80;99.90;;;;;;5072198;28;20063;-46
2022/05/25 03:51:51;;;;;;;28.17;20.00;;;9.80;99.90;;;;;;5071065;28;20040;-47
2022/05/25 03:54:17;;;;;;;24.23;18.55;;;9.80;99.90;;;;;;5072539;28;20040;-46
2022/05/25 03:56:43;;;;;;;22.60;20.20;;;9.90;99.90;;;;;;5071748;28;20059;-45
2022/05/25 03:59:09;;;;;;;20.45;18.20;;;9.90;99.90;;;;;;5071783;28;20047;-46
2022/05/25 04:01:36;;;;;;;23.37;19.90;;;9.90;99.90;;;;;;5071831;28;20049;-46
2022/05/25 04:04:02;;;;;;;24.88;20.20;;;9.90;99.90;;;;;;5072108;28;20056;-46
2022/05/25 04:06:27;;;;;;;21.73;19.25;;;10.00;99.90;;;;;;5071067;28;20383;-46
2022/05/25 04:08:53;;;;;;;24.08;20.33;;;10.00;99.90;;;;;;5071893;28;20043;-46
2022/05/25 04:11:19;;;;;;;23.40;18.93;;;10.00;99.90;;;;;;5071037;28;20044;-46
2022/05/25 04:13:44;;;;;;;24.23;19.05;;;10.10;99.90;;;;;;5069334;28;20340;-46
2022/05/25 04:16:10;;;;;;;20.40;17.50;;;10.10;99.90;;;;;;5071253;28;20043;-46
2022/05/25 04:18:36;;;;;;;21.87;19.63;;;10.10;99.90;;;;;;5071612;28;20044;-46
2022/05/25 04:21:01;;;;;;;21.35;18.95;;;10.10;99.90;;;;;;5071454;28;20106;-46
2022/05/25 04:23:28;;;;;;;21.07;18.83;;;10.20;99.90;;;;;;5070210;28;20040;-46
2022/05/25 04:25:54;;;;;;;22.70;19.48;;;10.20;99.90;;;;;;5069587;28;20612;-46
2022/05/25 04:28:20;;;;;;;22.88;19.38;;;10.20;99.90;;;;;;5069254;28;20029;-46
2022/05/25 04:30:47;;;;;;;25.98;19.70;;;10.20;99.90;;;;;;5071367;28;20542;-46
2022/05/25 04:33:14;;;;;;;27.15;20.38;;;10.30;99.90;;;;;;5069911;28;20047;-46
2022/05/25 04:35:40;;;;;;;23.98;19.85;;;10.30;99.90;;;;;;5069865;28;20163;-47
2022/05/25 04:38:06;;;;;;;22.40;19.88;;;10.30;99.90;;;;;;5066846;28;20059;-46
2022/05/25 04:40:38;;;;;;;25.10;21.73;;;10.40;99.90;;;;;;5069020;28;20058;-46
2022/05/25 04:43:19;;;;;;;24.27;20.30;;;10.40;99.90;;;;;;5068512;28;20079;-47
2022/05/25 04:45:47;;;;;;;30.50;21.95;;;10.40;99.90;;;;;;5070002;28;20159;-46
2022/05/25 04:48:14;;;;;;;27.10;22.33;;;10.40;99.90;;;;;;5071236;28;20119;-46
2022/05/25 04:50:41;;;;;;;27.13;21.60;;;10.40;99.90;;;;;;5070184;28;20126;-46
2022/05/25 04:53:09;;;;;;;28.35;21.95;;;10.50;99.90;;;;;;5070052;28;20045;-47
2022/05/25 04:58:45;;;;;;;26.23;22.60;;;10.60;99.90;;;;;;5071312;28;20044;-46
2022/05/25 05:01:13;;;;;;;25.60;21.33;;;10.60;99.90;;;;;;5066318;28;20117;-50
2022/05/25 05:03:39;;;;;;;23.60;20.90;;;10.70;99.90;;;;;;5069799;28;20040;-46
2022/05/25 05:06:06;;;;;;;26.23;22.15;;;10.70;99.90;;;;;;5069584;28;20047;-47
2022/05/25 05:08:33;;;;;;;25.67;21.67;;;10.80;99.90;;;;;;5070307;28;20037;-47
2022/05/25 05:11:16;;;;;;;25.77;21.08;;;10.90;99.90;;;;;;5070426;28;20047;-47
2022/05/25 05:13:42;;;;;;;24.60;21.17;;;10.90;99.90;;;;;;5070457;28;20072;-49
2022/05/25 05:16:11;;;;;;;28.85;22.90;;;11.00;99.90;;;;;;5068628;28;20032;-46
2022/05/25 05:18:37;;;;;;;27.38;20.35;;;11.10;99.90;;;;;;5070505;28;20048;-46
2022/05/25 05:21:03;;;;;;;24.60;21.98;;;11.10;99.90;;;;;;5070240;28;20037;-46
2022/05/25 05:23:29;;;;;;;27.38;21.48;;;11.20;99.90;;;;;;5070062;28;20036;-47
2022/05/25 05:25:55;;;;;;;24.40;21.40;;;11.30;99.90;;;;;;5069196;28;20043;-46
2022/05/25 05:28:29;;;;;;;23.95;20.95;;;11.30;99.90;;;;;;5070091;28;20043;-47
2022/05/25 05:30:57;;;;;;;27.05;21.02;;;11.40;99.90;;;;;;5069966;28;20310;-46
2022/05/25 05:33:24;;;;;;;23.42;21.05;;;11.40;99.90;;;;;;5070052;28;20059;-47
2022/05/25 05:35:56;;;;;;;25.23;22.02;;;11.50;99.90;;;;;;5069500;28;20040;-46
2022/05/25 05:38:22;;;;;;;23.63;20.55;;;11.50;99.90;;;;;;5070539;28;20040;-46
2022/05/25 05:40:48;;;;;;;29.77;19.98;;;11.60;99.90;;;;;;5065409;28;20458;-46
2022/05/25 05:43:14;;;;;;;25.33;22.38;;;11.70;99.90;;;;;;5068640;28;20101;-46
2022/05/25 05:45:42;;;;;;;28.52;20.17;;;11.70;99.90;;;;;;5068797;28;20413;-47
2022/05/25 05:48:20;;;;;;;27.95;21.27;;;11.80;99.90;;;;;;5069307;28;20040;-47
2022/05/25 05:50:48;;;;;;;23.85;19.50;;;11.90;99.90;;;;;;5068305;28;20050;-48
2022/05/25 05:53:15;;;;;;;24.55;21.73;;;11.90;99.90;;;;;;5069465;28;20040;-46
2022/05/25 05:55:42;;;;;;;24.38;20.02;;;12.00;99.90;;;;;;5068128;28;20098;-47
2022/05/25 05:58:07;;;;;;;26.10;21.20;;;12.10;99.90;;;;;;5068469;28;20048;-47
2022/05/25 06:00:33;;;;;;;23.83;21.13;;;12.10;99.90;;;;;;5066521;28;20044;-48
2022/05/25 06:02:59;;;;;;;27.00;20.17;;;12.20;99.90;;;;;;5069094;28;20054;-47
2022/05/25 06:05:25;;;;;;;;;;;12.30;99.90;;;;;;5067232;28;20087;-46
2022/05/25 06:07:50;;;;;;;26.08;21.45;;;12.30;99.90;;;;;;5068360;28;19952;-46
2022/05/25 06:10:16;;;;;;;31.73;21.80;;;12.30;99.90;;;;;;5070058;28;20044;-48
2022/05/25 06:12:42;;;;;;;23.03;20.13;;;12.40;99.90;;;;;;5068464;28;20293;-46
2022/05/25 06:20:36;;;;;;;29.27;22.50;;;12.70;99.90;;;;;;5069444;28;20080;-47
2022/05/25 06:23:02;;;;;;;27.13;20.83;;;12.70;99.90;;;;;;5068515;28;20076;-49
2022/05/25 06:25:28;;;;;;;31.45;22.20;;;12.80;99.90;;;;;;5068875;28;20041;-47
2022/05/25 06:27:54;;;;;;;32.75;22.67;;;12.80;99.90;;;;;;5068876;28;20123;-46
2022/05/25 06:30:20;;;;;;;25.20;20.90;;;12.90;99.90;;;;;;5069545;28;20040;-46
2022/05/25 06:32:45;;;;;;;27.38;20.48;;;12.90;99.90;;;;;;5069314;28;20102;-47
2022/05/25 06:35:11;;;;;;;22.63;19.47;;;12.90;99.90;;;;;;5069014;28;20082;-46
2022/05/25 06:37:37;;;;;;;25.88;19.85;;;13.00;99.90;;;;;;5069190;28;20057;-47
2022/05/25 06:40:04;;;;;;;25.33;21.07;;;13.00;99.90;;;;;;5069844;28;20029;-47
2022/05/25 06:42:29;;;;;;;23.02;18.25;;;13.10;99.90;;;;;;5068811;28;20772;-46
2022/05/25 06:44:55;;;;;;;22.73;17.90;;;13.20;99.90;;;;;;5068696;28;20420;-47
2022/05/25 06:47:20;;;;;;;24.98;17.38;;;13.30;99.90;;;;;;5069205;28;20068;-46
2022/05/25 06:49:46;;;;;;;24.35;18.98;;;13.30;99.90;;;;;;5069429;28;20402;-47
2022/05/25 06:52:13;;;;;;;22.65;19.00;;;13.30;99.90;;;;;;5068631;28;20048;-47
2022/05/25 06:54:40;;;;;;;24.88;16.98;;;13.40;99.90;;;;;;5068800;28;20098;-47
2022/05/25 06:57:05;;;;;;;25.67;18.40;;;13.50;99.90;;;;;;5069411;28;20416;-46
2022/05/25 06:59:32;;;;;;;19.13;16.00;;;13.60;99.90;;;;;;5069698;28;20044;-46
2022/05/25 07:01:57;;;;;;;;;;;13.70;99.90;;;;;;5069342;28;20660;-47
2022/05/25 07:04:23;;;;;;;18.02;13.73;;;13.80;99.90;;;;;;5068620;28;19920;-47
2022/05/25 07:06:48;;;;;;;16.38;14.02;;;13.80;99.90;;;;;;5068269;28;20043;-47
2022/05/25 07:09:14;;;;;;;15.98;13.25;;;13.80;99.90;;;;;;5069507;28;20465;-47
2022/05/25 07:11:42;;;;;;;21.52;12.88;;;13.90;99.90;;;;;;5068686;28;20116;-46
2022/05/25 07:14:08;;;;;;;18.05;12.98;;;13.90;99.90;;;;;;5068641;28;20498;-46
2022/05/25 07:16:34;;;;;;;19.73;13.13;;;13.90;99.90;;;;;;5068504;28;20032;-46
2022/05/25 07:18:59;;;;;;;20.50;13.18;;;14.00;99.90;;;;;;5068966;28;20034;-48
2022/05/25 07:21:27;;;;;;;21.15;13.07;;;14.10;99.90;;;;;;5071823;28;20426;-46
2022/05/25 07:23:55;;;;;;;19.20;13.35;;;14.20;99.90;;;;;;5070950;28;20045;-45
2022/05/25 07:26:22;;;;;;;17.33;11.20;;;14.30;99.90;;;;;;5071969;28;20040;-46
2022/05/25 07:28:50;;;;;;;15.00;9.65;;;14.40;99.90;;;;;;5072321;28;20497;-46
2022/05/25 07:31:26;;;;;;;14.82;10.35;;;14.50;99.90;;;;;;5072131;28;20098;-46
2022/05/25 07:34:06;;;;;;;13.07;9.07;;;14.60;99.90;;;;;;5071556;28;20458;-46
2022/05/25 07:36:34;;;;;;;10.57;7.45;;;14.60;99.90;;;;;;5071336;28;20043;-46
2022/05/25 07:39:04;;;;;;;11.45;8.73;;;14.70;99.90;;;;;;5072140;28;20120;-46
2022/05/25 07:41:31;;;;;;;9.50;7.88;;;14.80;99.90;;;;;;5071806;28;20123;-47
2022/05/25 07:43:58;;;;;;;9.88;5.75;;;14.80;99.90;;;;;;5071975;28;20040;-46
2022/05/25 07:46:28;;;;;;;10.48;5.53;;;14.80;99.90;;;;;;5071111;28;20040;-46
2022/05/25 07:48:53;;;;;;;9.20;5.47;;;14.80;99.90;;;;;;5070949;28;20040;-47
2022/05/25 07:51:19;;;;;;;9.23;6.47;;;14.80;99.90;;;;;;5071915;28;20044;-46
2022/05/25 07:53:55;;;;;;;8.73;6.43;;;14.90;99.90;;;;;;5071953;28;20059;-47
2022/05/25 07:56:22;;;;;;;7.13;5.47;;;14.90;99.90;;;;;;5070901;28;20041;-48
2022/05/25 07:58:48;;;;;;;8.75;5.72;;;15.10;99.90;;;;;;5070344;28;20068;-49
2022/05/25 08:01:17;;;;;;;8.82;6.38;;;15.20;99.90;;;;;;5069465;28;20071;-47
2022/05/25 08:06:31;;;;;;;9.77;7.25;;;15.50;99.90;;;;;;5051066;28;20124;-47
2022/05/25 08:08:57;;;;;;;8.38;5.32;;;15.60;99.90;;;;;;5064658;28;20052;-46
2022/05/25 08:11:23;;;;;;;13.40;4.72;;;15.60;99.90;;;;;;5070494;28;20405;-47
2022/05/25 08:13:53;;;;;;;9.48;5.28;;;15.70;99.90;;;;;;5071586;28;20132;-48
2022/05/25 08:16:19;;;;;;;12.65;6.75;;;15.60;99.90;;;;;;5070479;28;20440;-48
2022/05/25 08:18:45;;;;;;;6.88;6.03;;;15.60;99.90;;;;;;5068848;28;21108;-48
2022/05/25 08:21:11;;;;;;;9.35;5.13;;;15.70;99.90;;;;;;5058059;28;20040;-47
2022/05/25 08:23:37;;;;;;;7.43;6.18;;;15.80;99.90;;;;;;5064639;28;20036;-47
2022/05/25 08:26:02;;;;;;;10.23;5.68;;;15.80;99.90;;;;;;5066867;28;20082;-48
2022/05/25 08:28:28;;;;;;;8.80;6.97;;;15.80;99.90;;;;;;5067117;28;20033;-47
2022/05/25 08:30:53;;;;;;;9.15;7.05;;;16.00;99.90;;;;;;5066174;28;20497;-48
2022/05/25 08:33:21;;;;;;;8.98;5.32;;;16.10;99.90;;;;;;5066008;28;20123;-47
2022/05/25 08:35:48;;;;;;;11.20;5.57;;;16.20;99.90;;;;;;5065693;28;20077;-47
2022/05/25 08:38:14;;;;;;;10.13;6.43;;;16.20;99.90;;;;;;5065098;28;20040;-47
2022/05/25 08:40:40;;;;;;;5.78;5.28;;;16.20;99.90;;;;;;5066769;28;20113;-46
2022/05/25 08:43:24;;;;;;;6.75;4.90;;;16.20;99.90;;;;;;5065419;28;20123;-49
2022/05/25 08:45:57;;;;;;;8.07;5.55;;;16.20;99.90;;;;;;5066225;28;20529;-49
2022/05/25 08:48:25;;;;;;;7.78;5.72;;;16.20;99.90;;;;;;5065316;28;20048;-47
2022/05/25 08:51:02;;;;;;;8.25;5.57;;;16.20;99.90;;;;;;5065414;28;20037;-46
2022/05/25 08:53:28;;;;;;;6.35;5.32;;;16.30;99.90;;;;;;5064211;28;20040;-47
2022/05/25 08:56:21;;;;;;;8.10;5.35;;;16.40;99.90;;;;;;5065584;28;20068;-48
2022/05/25 08:58:55;;;;;;;10.27;4.93;;;16.40;99.90;;;;;;5057972;28;20075;-47
2022/05/25 09:01:28;;;;;;;8.02;5.68;;;16.50;99.90;;;;;;5065679;28;20107;-48
2022/05/25 09:04:21;;;;;;;5.78;4.88;;;16.50;99.90;;;;;;5066499;28;20075;-47
2022/05/25 09:07:12;;;;;;;6.13;5.20;;;16.60;99.90;;;;;;5065967;28;20434;-47
2022/05/25 09:09:41;;;;;;;5.75;5.10;;;16.60;99.90;;;;;;5065998;28;20043;-46
2022/05/25 09:12:32;;;;;;;8.57;4.63;;;16.70;99.90;;;;;;5066320;28;20033;-47
2022/05/25 09:15:07;;;;;;;6.28;4.35;;;16.70;99.90;;;;;;5064849;28;20036;-47
2022/05/25 09:17:46;;;;;;;5.47;4.38;;;16.70;99.90;;;;;;5065949;28;20062;-47
2022/05/25 09:20:17;;;;;;;8.40;3.25;;;16.70;99.90;;;;;;5062836;28;20049;-47
2022/05/25 09:22:43;;;;;;;4.18;3.17;;;16.70;99.90;;;;;;5065147;28;20071;-47
2022/05/25 09:25:12;;;;;;;9.27;4.32;;;16.70;99.90;;;;;;5065649;28;20033;-47
2022/05/25 09:28:00;;;;;;;4.57;3.97;;;16.70;99.90;;;;;;5066055;28;20048;-47
2022/05/25 09:30:27;;;;;;;5.65;5.15;;;16.70;99.90;;;;;;5062356;28;20078;-46
2022/05/25 09:33:00;;;;;;;7.00;4.93;;;16.70;99.90;;;;;;5065325;28;20043;-47
2022/05/25 09:35:31;;;;;;;7.65;5.13;;;16.70;99.90;;;;;;5063764;28;20389;-49
2022/05/25 09:38:03;;;;;;;7.80;5.50;;;16.70;99.90;;;;;;5066051;28;20051;-47
2022/05/25 09:40:35;;;;;;;5.95;5.47;;;16.70;99.90;;;;;;5066278;28;20070;-47
2022/05/25 09:43:04;;;;;;;4.47;3.38;;;16.70;99.90;;;;;;5063207;28;20498;-48
2022/05/25 09:45:50;;;;;;;7.43;4.07;;;16.80;99.90;;;;;;5064676;28;20103;-46
2022/05/25 09:48:22;;;;;;;4.72;2.47;;;16.90;99.90;;;;;;5064179;28;20470;-47
2022/05/25 09:51:02;;;;;;;6.43;4.07;;;16.90;99.90;;;;;;5065744;28;20041;-46
2022/05/25 09:53:39;;;;;;;7.20;4.93;;;17.00;99.90;;;;;;5064478;28;20040;-47
2022/05/25 09:56:22;;;;;;;6.70;5.20;;;17.00;99.90;;;;;;5061269;28;20086;-49
2022/05/25 09:58:53;;;;;;;7.43;6.10;;;16.90;99.90;;;;;;5045828;28;20045;-47
2022/05/25 10:01:26;;;;;;;9.55;5.70;;;16.90;99.90;;;;;;5046815;28;20095;-48
2022/05/25 10:03:53;;;;;;;8.32;4.28;;;17.00;99.90;;;;;;5064831;28;20075;-47
2022/05/25 10:06:20;;;;;;;7.35;4.53;;;17.00;99.90;;;;;;5064234;28;20044;-46
2022/05/25 10:09:06;;;;;;;3.83;3.20;;;17.10;99.90;;;;;;5065527;28;20036;-46
2022/05/25 10:11:40;;;;;;;4.45;3.53;;;17.10;99.90;;;;;;5064960;28;20040;-47
2022/05/25 10:14:30;;;;;;;3.60;3.30;;;17.20;99.90;;;;;;5049074;28;20068;-46
2022/05/25 10:17:14;;;;;;;5.97;3.58;;;17.20;99.70;;;;;;5064118;28;20040;-47
2022/05/25 10:20:22;;;;;;;6.30;3.88;;;17.30;99.90;;;;;;5065378;28;20385;-47
2022/05/25 10:22:51;;;;;;;5.25;4.30;;;17.30;99.90;;;;;;5053061;28;20056;-47
2022/05/25 10:25:34;;;;;;;10.52;3.00;;;17.40;99.90;;;;;;5062644;28;20513;-47
2022/05/25 10:28:01;;;;;;;6.70;2.88;;;17.40;99.90;;;;;;5064932;28;20444;-48
2022/05/25 10:36:45;;;;;;;3.08;2.15;;;17.60;98.30;;;;;;5064060;28;20044;-46
2022/05/25 10:39:35;;;;;;;3.22;2.13;;;17.60;98.10;;;;;;5046721;28;20083;-47
2022/05/25 10:42:03;;;;;;;6.25;3.13;;;17.40;97.20;;;;;;5064230;28;20055;-47
2022/05/25 10:44:36;;;;;;;4.05;2.15;;;17.20;97.70;;;;;;5064966;28;20094;-50
2022/05/25 10:47:03;;;;;;;4.15;2.72;;;17.10;98.00;;;;;;5064258;28;20448;-48
2022/05/25 10:49:41;;;;;;;4.72;2.42;;;17.00;98.40;;;;;;5064439;28;20508;-47
2022/05/25 10:52:34;;;;;;;6.97;2.55;;;16.90;98.30;;;;;;5064536;28;20090;-46
2022/05/25 10:55:00;;;;;;;4.50;2.65;;;16.80;98.20;;;;;;5065689;28;20119;-46
2022/05/25 10:58:02;;;;;;;5.18;2.63;;;16.70;99.00;;;;;;5067998;28;20120;-47
2022/05/25 11:00:34;;;;;;;4.85;2.97;;;16.70;99.60;;;;;;5069126;28;20055;-48
2022/05/25 11:03:31;;;;;;;3.38;3.08;;;16.80;98.80;;;;;;5066811;28;20098;-47
2022/05/25 11:06:15;;;;;;;10.55;3.53;;;16.80;98.60;;;;;;5067187;28;20511;-47
2022/05/25 11:08:43;;;;;;;5.32;3.00;;;16.90;98.80;;;;;;5068726;28;20037;-47
2022/05/25 11:11:43;;;;;;;4.00;2.53;;;16.90;98.60;;;;;;5067701;28;20044;-47
2022/05/25 11:14:43;;;;;;;3.70;3.40;;;16.80;97.90;;;;;;5067181;28;20041;-45
2022/05/25 11:17:47;;;;;;;6.25;4.20;;;16.70;98.30;;;;;;5068700;28;20037;-47
2022/05/25 11:20:41;;;;;;;5.60;3.90;;;16.80;99.70;;;;;;5062971;28;20074;-47
2022/05/25 11:23:34;;;;;;;5.10;4.43;;;17.00;99.70;;;;;;5067622;28;20443;-46
2022/05/25 11:26:30;;;;;;;5.47;3.30;;;17.30;99.60;;;;;;5068123;28;20452;-47
2022/05/25 11:29:20;;;;;;;3.13;2.30;;;17.50;98.50;;;;;;5068082;28;20052;-47
2022/05/25 11:31:57;;;;;;;5.97;4.43;;;17.60;98.00;;;;;;5068049;28;20102;-47
2022/05/25 11:35:11;;;;;;;7.22;5.13;;;17.80;98.50;;;;;;5068395;28;20066;-46
2022/05/25 11:38:05;;;;;;;5.22;4.85;;;18.00;97.20;;;;;;4986107;28;20050;-47
2022/05/25 11:40:58;;;;;;;4.90;3.92;;;18.00;96.00;;;;;;4989653;28;20539;-46
2022/05/25 11:43:41;;;;;;;7.38;5.78;;;18.00;96.50;;;;;;4996327;28;20080;-47
2022/05/25 11:46:28;;;;;;;11.93;5.70;;;17.90;96.90;;;;;;5003644;28;20756;-46
2022/05/25 11:49:07;;;;;;;9.98;5.15;;;17.80;97.10;;;;;;4986306;28;20053;-46
2022/05/25 11:51:47;;;;;;;5.50;4.60;;;17.80;96.60;;;;;;5002336;28;20038;-47
2022/05/25 11:54:28;;;;;;;6.03;4.65;;;17.80;95.40;;;;;;5003670;28;20055;-46
2022/05/25 11:57:02;;;;;;;5.78;5.28;;;17.80;96.20;;;;;;4992761;28;20038;-47
2022/05/25 11:59:54;;;;;;;7.25;6.05;;;17.70;95.50;;;;;;5002277;28;20041;-46
2022/05/25 12:02:36;;;;;;;7.22;6.10;;;17.70;94.80;;;;;;4994992;28;20054;-47
2022/05/25 12:05:32;;;;;;;5.78;4.63;;;17.80;95.60;;;;;;4985558;28;20419;-47
2022/05/25 12:08:17;;;;;;;5.68;4.20;;;17.90;93.90;;;;;;4999039;28;20054;-46
2022/05/25 12:10:45;;;;;;;7.30;4.90;;;17.90;92.80;;;;;;4985636;28;20042;-46
2022/05/25 12:13:33;;;;;;;12.93;5.78;;;17.90;93.80;;;;;;4999518;28;20042;-46
2022/05/25 12:16:15;;;;;;;10.60;5.43;;;17.90;93.70;;;;;;5066219;28;20055;-46
2022/05/25 12:18:51;;;;;;;6.15;5.53;;;17.90;93.40;;;;;;5066378;28;20129;-47
2022/05/25 12:21:22;;;;;;;8.10;4.30;;;17.80;94.10;;;;;;5066371;28;20524;-47
2022/05/25 12:24:02;;;;;;;5.07;3.40;;;17.80;93.70;;;;;;5066943;28;20036;-47
2022/05/25 12:26:34;;;;;;;6.00;3.80;;;17.70;92.60;;;;;;5064884;28;20426;-46
2022/05/25 12:29:20;;;;;;;5.10;3.28;;;17.60;92.20;;;;;;5066462;28;20419;-48
2022/05/25 12:31:49;;;;;;;4.18;3.15;;;17.50;91.70;;;;;;5062816;28;20050;-47
2022/05/25 12:34:20;;;;;;;5.88;2.78;;;17.50;92.60;;;;;;5066745;28;20456;-47
2022/05/25 12:36:46;;;;;;;6.78;4.82;;;17.40;93.10;;;;;;5046510;28;20029;-46
2022/05/25 12:39:12;;;;;;;5.03;4.05;;;17.50;93.60;;;;;;5059182;28;20097;-47
2022/05/25 12:41:39;;;;;;;8.25;5.20;;;17.50;94.00;;;;;;5065167;28;20127;-46
2022/05/25 12:49:42;;;;;;;8.27;6.45;;;17.60;95.30;;;;;;5046261;28;20147;-47
2022/05/25 12:52:39;;;;;;;6.20;5.60;;;17.80;95.20;;;;;;5070068;28;20115;-47
2022/05/25 12:55:16;;;;;;;5.78;5.22;;;17.90;96.40;;;;;;4967699;28;20341;-47
2022/05/25 12:57:50;;;;;;;5.65;4.13;;;18.10;95.10;;;;;;4984144;28;20125;-47
2022/05/25 13:00:15;;;;;;;7.20;4.65;;;18.20;96.10;;;;;;4983982;28;20229;-48
2022/05/25 13:02:41;;;;;;;5.22;2.75;;;18.30;95.60;;;;;;4983995;28;20190;-46
2022/05/25 13:05:08;;;;;;;3.15;2.40;;;18.20;94.20;;;;;;4991534;28;20060;-47
2022/05/25 13:07:45;;;;;;;3.85;2.42;;;18.20;94.20;;;;;;4998966;28;20033;-47
2022/05/25 13:10:31;;;;;;;7.18;1.38;;;18.20;93.50;;;;;;5002317;28;20030;-46
2022/05/25 13:13:06;;;;;;;3.13;1.48;;;18.20;93.70;;;;;;5003520;28;20572;-46
2022/05/25 13:15:39;;;;;;;3.97;1.05;;;18.20;94.30;;;;;;4998473;28;20415;-46
2022/05/25 13:18:07;;;;;;;2.78;1.05;;;18.30;93.00;;;;;;5003635;28;20053;-46
2022/05/25 13:20:46;;;;;;;4.95;1.10;;;18.30;93.00;;;;;;4992858;28;20106;-46
2022/05/25 13:23:51;;;;;;;4.38;1.02;;;18.30;93.50;;;;;;4994084;28;20121;-47
2022/05/25 13:26:29;;;;;;;3.17;0.55;;;18.30;92.80;;;;;;4983254;28;20088;-47
2022/05/25 13:29:08;;;;;;;3.95;0.40;;;18.30;93.70;;;;;;4989021;28;20117;-46
2022/05/25 13:31:46;;;;;;;3.42;0.80;;;18.20;92.80;;;;;;5017164;28;20055;-46
2022/05/25 13:34:17;;;;;;;2.95;0.47;;;18.10;93.70;;;;;;5059884;28;20052;-47
2022/05/25 13:36:48;;;;;;;2.45;0.63;;;18.10;93.60;;;;;;5063938;28;20048;-47